sensor_id;sensor_type;location;lat;lon;timestamp;P1;durP1;ratioP1;P2;durP2;ratioP2
56297;SDS011;42208;6.376;-10.782;2022-07-05T00:19:07;20.52;;;6.40;;
56297;SDS011;42208;6.376;-10.782;2022-07-05T00:21:35;23.10;;;8.30;;
56297;SDS011;42208;6.376;-10.782;2022-07-05T00:24:03;19.42;;;7.32;;
56297;SDS011;42208;6.376;-10.782;2022-07-05T00:26:31;24.27;;;7.90;;
56297;SDS011;42208;6.376;-10.782;2022-07-05T00:29:00;21.40;;;7.50;;
56297;SDS011;42208;6.376;-10.782;2022-07-05T00:31:28;17.55;;;7.55;;
56297;SDS011;42208;6.376;-10.782;2022-07-05T00:33:57;17.30;;;8.00;;
56297;SDS011;42208;6.376;-10.782;2022-07-05T00:36:25;18.33;;;7.82;;
56297;SDS011;42208;6.376;-10.782;2022-07-05T00:38:55;21.88;;;8.57;;
56297;SDS011;42208;6.376;-10.782;2022-07-05T00:41:24;19.08;;;7.68;;
56297;SDS011;42208;6.376;-10.782;2022-07-05T00:44:02;44.40;;;10.07;;
56297;SDS011;42208;6.376;-10.782;2022-07-05T00:46:36;25.55;;;9.48;;
56297;SDS011;42208;6.376;-10.782;2022-07-05T00:49:06;26.48;;;10.73;;
56297;SDS011;42208;6.376;-10.782;2022-07-05T00:51:36;21.52;;;9.77;;
56297;SDS011;42208;6.376;-10.782;2022-07-05T00:54:22;23.65;;;10.40;;
56297;SDS011;42208;6.376;-10.782;2022-07-05T00:56:50;23.88;;;9.88;;
56297;SDS011;42208;6.376;-10.782;2022-07-05T00:59:25;29.55;;;10.05;;
56297;SDS011;42208;6.376;-10.782;2022-07-05T01:01:54;19.67;;;9.75;;
56297;SDS011;42208;6.376;-10.782;2022-07-05T01:04:23;35.08;;;11.18;;
56297;SDS011;42208;6.376;-10.782;2022-07-05T01:06:51;31.40;;;10.75;;
56297;SDS011;42208;6.376;-10.782;2022-07-05T01:09:20;23.88;;;10.65;;
56297;SDS011;42208;6.376;-10.782;2022-07-05T01:11:50;23.83;;;10.77;;
56297;SDS011;42208;6.376;-10.782;2022-07-05T01:14:19;31.95;;;10.40;;
56297;SDS011;42208;6.376;-10.782;2022-07-05T01:16:49;22.42;;;9.77;;
56297;SDS011;42208;6.376;-10.782;2022-07-05T01:19:19;25.33;;;9.02;;
56297;SDS011;42208;6.376;-10.782;2022-07-05T01:21:48;21.73;;;8.00;;
56297;SDS011;42208;6.376;-10.782;2022-07-05T01:24:17;17.15;;;6.85;;
56297;SDS011;42208;6.376;-10.782;2022-07-05T01:26:47;16.02;;;7.00;;
56297;SDS011;42208;6.376;-10.782;2022-07-05T01:29:16;20.30;;;7.20;;
56297;SDS011;42208;6.376;-10.782;2022-07-05T01:31:45;16.02;;;6.70;;
56297;SDS011;42208;6.376;-10.782;2022-07-05T01:34:13;18.50;;;7.55;;
56297;SDS011;42208;6.376;-10.782;2022-07-05T01:36:41;18.42;;;8.18;;
56297;SDS011;42208;6.376;-10.782;2022-07-05T01:39:10;20.05;;;8.32;;
56297;SDS011;42208;6.376;-10.782;2022-07-05T01:41:39;19.25;;;7.43;;
56297;SDS011;42208;6.376;-10.782;2022-07-05T01:44:07;14.48;;;7.43;;
56297;SDS011;42208;6.376;-10.782;2022-07-05T01:46:35;20.48;;;7.90;;
56297;SDS011;42208;6.376;-10.782;2022-07-05T01:49:06;19.25;;;9.57;;
56297;SDS011;42208;6.376;-10.782;2022-07-05T01:51:44;20.00;;;10.10;;
56297;SDS011;42208;6.376;-10.782;2022-07-05T01:54:18;18.70;;;9.23;;
56297;SDS011;42208;6.376;-10.782;2022-07-05T01:56:47;20.00;;;8.27;;
56297;SDS011;42208;6.376;-10.782;2022-07-05T01:59:15;19.42;;;8.00;;
56297;SDS011;42208;6.376;-10.782;2022-07-05T02:01:43;17.60;;;7.40;;
56297;SDS011;42208;6.376;-10.782;2022-07-05T02:04:12;18.38;;;7.53;;
56297;SDS011;42208;6.376;-10.782;2022-07-05T02:06:40;17.42;;;6.93;;
56297;SDS011;42208;6.376;-10.782;2022-07-05T02:09:09;11.35;;;6.68;;
56297;SDS011;42208;6.376;-10.782;2022-07-05T02:11:38;18.35;;;6.80;;
56297;SDS011;42208;6.376;-10.782;2022-07-05T02:14:06;15.68;;;7.10;;
56297;SDS011;42208;6.376;-10.782;2022-07-05T02:19:07;16.35;;;7.55;;
56297;SDS011;42208;6.376;-10.782;2022-07-05T02:21:39;15.30;;;8.43;;
56297;SDS011;42208;6.376;-10.782;2022-07-05T02:26:47;28.52;;;13.23;;
56297;SDS011;42208;6.376;-10.782;2022-07-05T02:29:17;24.63;;;12.88;;
56297;SDS011;42208;6.376;-10.782;2022-07-05T02:31:47;25.65;;;13.93;;
56297;SDS011;42208;6.376;-10.782;2022-07-05T02:34:16;32.75;;;16.90;;
56297;SDS011;42208;6.376;-10.782;2022-07-05T02:36:45;32.05;;;16.52;;
56297;SDS011;42208;6.376;-10.782;2022-07-05T02:39:14;32.95;;;16.40;;
56297;SDS011;42208;6.376;-10.782;2022-07-05T02:41:44;19.77;;;10.35;;
56297;SDS011;42208;6.376;-10.782;2022-07-05T02:44:13;16.40;;;8.02;;
56297;SDS011;42208;6.376;-10.782;2022-07-05T02:46:42;18.25;;;8.55;;
56297;SDS011;42208;6.376;-10.782;2022-07-05T02:49:10;23.02;;;8.02;;
56297;SDS011;42208;6.376;-10.782;2022-07-05T02:51:39;22.75;;;8.27;;
56297;SDS011;42208;6.376;-10.782;2022-07-05T02:54:09;19.25;;;8.40;;
56297;SDS011;42208;6.376;-10.782;2022-07-05T02:56:39;26.85;;;8.20;;
56297;SDS011;42208;6.376;-10.782;2022-07-05T02:59:10;21.10;;;8.25;;
56297;SDS011;42208;6.376;-10.782;2022-07-05T03:01:39;18.70;;;8.40;;
56297;SDS011;42208;6.376;-10.782;2022-07-05T03:04:11;16.70;;;8.52;;
56297;SDS011;42208;6.376;-10.782;2022-07-05T03:06:46;23.63;;;9.15;;
56297;SDS011;42208;6.376;-10.782;2022-07-05T03:09:22;18.83;;;9.98;;
56297;SDS011;42208;6.376;-10.782;2022-07-05T03:11:51;25.20;;;11.18;;
56297;SDS011;42208;6.376;-10.782;2022-07-05T03:14:19;26.70;;;12.68;;
56297;SDS011;42208;6.376;-10.782;2022-07-05T03:16:49;36.00;;;14.98;;
56297;SDS011;42208;6.376;-10.782;2022-07-05T03:19:20;42.97;;;19.48;;
56297;SDS011;42208;6.376;-10.782;2022-07-05T03:21:48;49.38;;;21.77;;
56297;SDS011;42208;6.376;-10.782;2022-07-05T03:24:17;54.70;;;22.35;;
56297;SDS011;42208;6.376;-10.782;2022-07-05T03:26:46;48.08;;;23.33;;
56297;SDS011;42208;6.376;-10.782;2022-07-05T03:29:14;42.35;;;20.95;;
56297;SDS011;42208;6.376;-10.782;2022-07-05T03:31:43;52.78;;;23.80;;
56297;SDS011;42208;6.376;-10.782;2022-07-05T03:34:11;47.15;;;23.27;;
56297;SDS011;42208;6.376;-10.782;2022-07-05T03:36:41;43.17;;;21.27;;
56297;SDS011;42208;6.376;-10.782;2022-07-05T03:39:13;43.40;;;21.35;;
56297;SDS011;42208;6.376;-10.782;2022-07-05T03:41:43;45.70;;;21.52;;
56297;SDS011;42208;6.376;-10.782;2022-07-05T03:44:16;47.78;;;19.98;;
56297;SDS011;42208;6.376;-10.782;2022-07-05T03:46:44;40.75;;;19.85;;
56297;SDS011;42208;6.376;-10.782;2022-07-05T03:49:17;45.28;;;19.58;;
56297;SDS011;42208;6.376;-10.782;2022-07-05T03:51:47;43.30;;;21.55;;
56297;SDS011;42208;6.376;-10.782;2022-07-05T03:54:16;40.05;;;20.13;;
56297;SDS011;42208;6.376;-10.782;2022-07-05T03:56:44;43.90;;;22.05;;
56297;SDS011;42208;6.376;-10.782;2022-07-05T03:59:14;46.95;;;22.40;;
56297;SDS011;42208;6.376;-10.782;2022-07-05T04:01:43;49.78;;;23.33;;
56297;SDS011;42208;6.376;-10.782;2022-07-05T04:04:13;48.70;;;23.65;;
56297;SDS011;42208;6.376;-10.782;2022-07-05T04:06:42;51.22;;;24.08;;
56297;SDS011;42208;6.376;-10.782;2022-07-05T04:09:11;49.42;;;24.08;;
56297;SDS011;42208;6.376;-10.782;2022-07-05T04:11:39;54.05;;;26.25;;
56297;SDS011;42208;6.376;-10.782;2022-07-05T04:14:08;52.15;;;25.92;;
56297;SDS011;42208;6.376;-10.782;2022-07-05T04:16:37;54.58;;;26.13;;
56297;SDS011;42208;6.376;-10.782;2022-07-05T04:19:06;53.72;;;26.83;;
56297;SDS011;42208;6.376;-10.782;2022-07-05T04:21:36;52.20;;;25.73;;
56297;SDS011;42208;6.376;-10.782;2022-07-05T04:24:05;57.33;;;24.67;;
56297;SDS011;42208;6.376;-10.782;2022-07-05T04:26:34;48.70;;;25.63;;
56297;SDS011;42208;6.376;-10.782;2022-07-05T04:29:02;54.97;;;25.75;;
56297;SDS011;42208;6.376;-10.782;2022-07-05T04:31:35;57.05;;;26.63;;
56297;SDS011;42208;6.376;-10.782;2022-07-05T04:34:04;54.88;;;26.85;;
56297;SDS011;42208;6.376;-10.782;2022-07-05T04:36:35;53.03;;;26.00;;
56297;SDS011;42208;6.376;-10.782;2022-07-05T04:39:04;54.30;;;26.25;;
56297;SDS011;42208;6.376;-10.782;2022-07-05T04:41:34;50.20;;;26.08;;
56297;SDS011;42208;6.376;-10.782;2022-07-05T04:44:05;45.65;;;23.05;;
56297;SDS011;42208;6.376;-10.782;2022-07-05T04:46:34;46.38;;;20.63;;
56297;SDS011;42208;6.376;-10.782;2022-07-05T04:49:03;43.17;;;20.63;;
56297;SDS011;42208;6.376;-10.782;2022-07-05T04:51:31;39.95;;;18.02;;
56297;SDS011;42208;6.376;-10.782;2022-07-05T04:54:00;33.20;;;16.10;;
56297;SDS011;42208;6.376;-10.782;2022-07-05T04:56:28;31.63;;;15.13;;
56297;SDS011;42208;6.376;-10.782;2022-07-05T04:58:56;33.30;;;15.63;;
56297;SDS011;42208;6.376;-10.782;2022-07-05T05:01:24;30.85;;;14.27;;
56297;SDS011;42208;6.376;-10.782;2022-07-05T05:03:53;33.38;;;15.93;;
56297;SDS011;42208;6.376;-10.782;2022-07-05T05:06:21;27.85;;;14.60;;
56297;SDS011;42208;6.376;-10.782;2022-07-05T05:08:49;29.80;;;14.95;;
56297;SDS011;42208;6.376;-10.782;2022-07-05T05:11:17;28.05;;;13.73;;
56297;SDS011;42208;6.376;-10.782;2022-07-05T05:13:46;32.20;;;13.95;;
56297;SDS011;42208;6.376;-10.782;2022-07-05T05:16:14;28.70;;;13.50;;
56297;SDS011;42208;6.376;-10.782;2022-07-05T05:18:42;31.25;;;13.65;;
56297;SDS011;42208;6.376;-10.782;2022-07-05T05:21:11;35.85;;;14.07;;
56297;SDS011;42208;6.376;-10.782;2022-07-05T05:23:39;25.95;;;13.30;;
56297;SDS011;42208;6.376;-10.782;2022-07-05T05:26:07;28.83;;;14.48;;
56297;SDS011;42208;6.376;-10.782;2022-07-05T05:28:35;27.63;;;15.40;;
56297;SDS011;42208;6.376;-10.782;2022-07-05T05:31:04;31.95;;;13.55;;
56297;SDS011;42208;6.376;-10.782;2022-07-05T05:33:33;27.63;;;14.00;;
56297;SDS011;42208;6.376;-10.782;2022-07-05T05:36:01;30.20;;;14.52;;
56297;SDS011;42208;6.376;-10.782;2022-07-05T05:38:30;28.42;;;15.15;;
56297;SDS011;42208;6.376;-10.782;2022-07-05T05:40:58;30.45;;;14.65;;
56297;SDS011;42208;6.376;-10.782;2022-07-05T05:43:26;31.52;;;15.20;;
56297;SDS011;42208;6.376;-10.782;2022-07-05T05:45:55;34.70;;;13.52;;
56297;SDS011;42208;6.376;-10.782;2022-07-05T05:48:23;30.33;;;14.18;;
56297;SDS011;42208;6.376;-10.782;2022-07-05T05:50:51;27.80;;;12.43;;
56297;SDS011;42208;6.376;-10.782;2022-07-05T05:53:19;28.15;;;13.32;;
56297;SDS011;42208;6.376;-10.782;2022-07-05T05:55:52;27.50;;;12.48;;
56297;SDS011;42208;6.376;-10.782;2022-07-05T05:58:21;29.50;;;12.27;;
56297;SDS011;42208;6.376;-10.782;2022-07-05T06:00:51;25.08;;;10.98;;
56297;SDS011;42208;6.376;-10.782;2022-07-05T06:03:20;22.02;;;9.48;;
56297;SDS011;42208;6.376;-10.782;2022-07-05T06:05:50;23.60;;;10.23;;
56297;SDS011;42208;6.376;-10.782;2022-07-05T06:08:19;22.80;;;10.23;;
56297;SDS011;42208;6.376;-10.782;2022-07-05T06:10:47;24.27;;;10.10;;
56297;SDS011;42208;6.376;-10.782;2022-07-05T06:13:25;29.13;;;10.05;;
56297;SDS011;42208;6.376;-10.782;2022-07-05T06:15:53;27.88;;;10.77;;
56297;SDS011;42208;6.376;-10.782;2022-07-05T06:18:22;22.33;;;11.48;;
56297;SDS011;42208;6.376;-10.782;2022-07-05T06:20:50;27.83;;;15.73;;
56297;SDS011;42208;6.376;-10.782;2022-07-05T06:23:18;37.40;;;23.38;;
56297;SDS011;42208;6.376;-10.782;2022-07-05T06:25:47;28.42;;;14.40;;
56297;SDS011;42208;6.376;-10.782;2022-07-05T06:28:15;24.48;;;10.05;;
56297;SDS011;42208;6.376;-10.782;2022-07-05T06:30:43;22.05;;;8.30;;
56297;SDS011;42208;6.376;-10.782;2022-07-05T06:33:11;22.65;;;8.98;;
56297;SDS011;42208;6.376;-10.782;2022-07-05T06:35:39;17.80;;;8.27;;
56297;SDS011;42208;6.376;-10.782;2022-07-05T06:38:08;30.52;;;8.45;;
56297;SDS011;42208;6.376;-10.782;2022-07-05T06:40:38;19.80;;;9.02;;
56297;SDS011;42208;6.376;-10.782;2022-07-05T06:43:11;21.55;;;9.38;;
56297;SDS011;42208;6.376;-10.782;2022-07-05T06:45:53;29.65;;;10.65;;
56297;SDS011;42208;6.376;-10.782;2022-07-05T06:48:21;26.90;;;11.57;;
56297;SDS011;42208;6.376;-10.782;2022-07-05T06:50:50;26.48;;;13.25;;
56297;SDS011;42208;6.376;-10.782;2022-07-05T06:53:18;31.17;;;14.55;;
56297;SDS011;42208;6.376;-10.782;2022-07-05T06:55:46;36.92;;;15.48;;
56297;SDS011;42208;6.376;-10.782;2022-07-05T06:58:22;24.60;;;11.68;;
56297;SDS011;42208;6.376;-10.782;2022-07-05T07:00:51;23.42;;;10.40;;
56297;SDS011;42208;6.376;-10.782;2022-07-05T07:03:39;26.20;;;10.40;;
56297;SDS011;42208;6.376;-10.782;2022-07-05T07:06:28;12.07;;;6.55;;
56297;SDS011;42208;6.376;-10.782;2022-07-05T07:08:56;15.60;;;6.60;;
56297;SDS011;42208;6.376;-10.782;2022-07-05T07:11:24;21.98;;;7.32;;
56297;SDS011;42208;6.376;-10.782;2022-07-05T07:13:53;16.35;;;6.07;;
56297;SDS011;42208;6.376;-10.782;2022-07-05T07:16:21;12.07;;;5.75;;
56297;SDS011;42208;6.376;-10.782;2022-07-05T07:18:49;13.02;;;5.55;;
56297;SDS011;42208;6.376;-10.782;2022-07-05T07:21:38;10.63;;;5.00;;
56297;SDS011;42208;6.376;-10.782;2022-07-05T07:24:07;9.98;;;5.40;;
56297;SDS011;42208;6.376;-10.782;2022-07-05T07:26:36;19.05;;;6.40;;
56297;SDS011;42208;6.376;-10.782;2022-07-05T07:29:04;14.23;;;5.85;;
56297;SDS011;42208;6.376;-10.782;2022-07-05T07:31:32;12.40;;;6.65;;
56297;SDS011;42208;6.376;-10.782;2022-07-05T07:34:01;13.35;;;6.40;;
56297;SDS011;42208;6.376;-10.782;2022-07-05T07:36:29;19.27;;;6.22;;
56297;SDS011;42208;6.376;-10.782;2022-07-05T07:38:57;12.75;;;7.32;;
56297;SDS011;42208;6.376;-10.782;2022-07-05T07:41:25;13.57;;;6.47;;
56297;SDS011;42208;6.376;-10.782;2022-07-05T07:43:53;14.93;;;7.60;;
56297;SDS011;42208;6.376;-10.782;2022-07-05T07:46:21;13.55;;;7.93;;
56297;SDS011;42208;6.376;-10.782;2022-07-05T07:48:50;13.38;;;6.20;;
56297;SDS011;42208;6.376;-10.782;2022-07-05T07:51:18;14.50;;;7.68;;
56297;SDS011;42208;6.376;-10.782;2022-07-05T07:53:46;16.10;;;8.18;;
56297;SDS011;42208;6.376;-10.782;2022-07-05T07:56:15;12.32;;;7.50;;
56297;SDS011;42208;6.376;-10.782;2022-07-05T07:58:43;14.57;;;8.05;;
56297;SDS011;42208;6.376;-10.782;2022-07-05T08:01:12;12.98;;;7.55;;
56297;SDS011;42208;6.376;-10.782;2022-07-05T08:03:40;13.77;;;7.63;;
56297;SDS011;42208;6.376;-10.782;2022-07-05T08:06:09;16.33;;;8.02;;
56297;SDS011;42208;6.376;-10.782;2022-07-05T08:08:38;14.50;;;7.25;;
56297;SDS011;42208;6.376;-10.782;2022-07-05T08:11:08;17.67;;;7.75;;
56297;SDS011;42208;6.376;-10.782;2022-07-05T08:13:37;13.05;;;7.25;;
56297;SDS011;42208;6.376;-10.782;2022-07-05T08:16:06;16.15;;;7.40;;
56297;SDS011;42208;6.376;-10.782;2022-07-05T08:18:36;23.55;;;9.60;;
56297;SDS011;42208;6.376;-10.782;2022-07-05T08:21:05;15.15;;;7.45;;
56297;SDS011;42208;6.376;-10.782;2022-07-05T08:23:33;15.57;;;7.15;;
56297;SDS011;42208;6.376;-10.782;2022-07-05T08:26:01;13.95;;;7.10;;
56297;SDS011;42208;6.376;-10.782;2022-07-05T08:28:29;11.80;;;6.40;;
56297;SDS011;42208;6.376;-10.782;2022-07-05T08:31:18;14.23;;;7.57;;
56297;SDS011;42208;6.376;-10.782;2022-07-05T08:33:46;19.42;;;8.05;;
56297;SDS011;42208;6.376;-10.782;2022-07-05T08:36:15;18.90;;;8.18;;
56297;SDS011;42208;6.376;-10.782;2022-07-05T08:38:43;15.48;;;6.78;;
56297;SDS011;42208;6.376;-10.782;2022-07-05T08:41:11;17.27;;;7.25;;
56297;SDS011;42208;6.376;-10.782;2022-07-05T08:43:40;13.95;;;7.40;;
56297;SDS011;42208;6.376;-10.782;2022-07-05T08:46:10;16.42;;;7.60;;
56297;SDS011;42208;6.376;-10.782;2022-07-05T08:48:41;18.95;;;7.70;;
56297;SDS011;42208;6.376;-10.782;2022-07-05T08:51:14;17.40;;;7.70;;
56297;SDS011;42208;6.376;-10.782;2022-07-05T08:53:47;14.40;;;7.68;;
56297;SDS011;42208;6.376;-10.782;2022-07-05T08:56:17;18.23;;;8.27;;
56297;SDS011;42208;6.376;-10.782;2022-07-05T08:59:05;13.73;;;7.43;;
56297;SDS011;42208;6.376;-10.782;2022-07-05T09:01:33;16.02;;;7.70;;
56297;SDS011;42208;6.376;-10.782;2022-07-05T09:04:06;17.30;;;6.95;;
56297;SDS011;42208;6.376;-10.782;2022-07-05T09:06:38;16.42;;;7.70;;
56297;SDS011;42208;6.376;-10.782;2022-07-05T09:09:07;23.23;;;8.10;;
56297;SDS011;42208;6.376;-10.782;2022-07-05T09:11:39;18.52;;;7.85;;
56297;SDS011;42208;6.376;-10.782;2022-07-05T09:14:24;16.02;;;7.15;;
56297;SDS011;42208;6.376;-10.782;2022-07-05T09:16:55;15.52;;;6.88;;
56297;SDS011;42208;6.376;-10.782;2022-07-05T09:19:24;14.93;;;7.70;;
56297;SDS011;42208;6.376;-10.782;2022-07-05T09:22:02;14.90;;;6.60;;
56297;SDS011;42208;6.376;-10.782;2022-07-05T09:24:31;15.63;;;6.13;;
56297;SDS011;42208;6.376;-10.782;2022-07-05T09:27:10;12.88;;;6.85;;
56297;SDS011;42208;6.376;-10.782;2022-07-05T09:29:38;19.10;;;7.40;;
56297;SDS011;42208;6.376;-10.782;2022-07-05T09:32:23;23.27;;;7.70;;
56297;SDS011;42208;6.376;-10.782;2022-07-05T09:34:51;15.45;;;6.63;;
56297;SDS011;42208;6.376;-10.782;2022-07-05T09:37:20;15.90;;;7.35;;
56297;SDS011;42208;6.376;-10.782;2022-07-05T09:39:48;13.48;;;6.45;;
56297;SDS011;42208;6.376;-10.782;2022-07-05T09:42:22;22.40;;;7.40;;
56297;SDS011;42208;6.376;-10.782;2022-07-05T09:44:54;17.15;;;8.02;;
56297;SDS011;42208;6.376;-10.782;2022-07-05T09:47:26;16.75;;;7.07;;
56297;SDS011;42208;6.376;-10.782;2022-07-05T09:49:56;26.27;;;8.30;;
56297;SDS011;42208;6.376;-10.782;2022-07-05T09:52:41;24.70;;;7.90;;
56297;SDS011;42208;6.376;-10.782;2022-07-05T09:55:14;17.45;;;8.90;;
56297;SDS011;42208;6.376;-10.782;2022-07-05T09:57:44;28.40;;;16.55;;
56297;SDS011;42208;6.376;-10.782;2022-07-05T10:00:14;34.13;;;14.48;;
56297;SDS011;42208;6.376;-10.782;2022-07-05T10:02:53;21.80;;;10.60;;
56297;SDS011;42208;6.376;-10.782;2022-07-05T10:05:23;20.17;;;8.77;;
56297;SDS011;42208;6.376;-10.782;2022-07-05T10:07:53;16.75;;;8.20;;
56297;SDS011;42208;6.376;-10.782;2022-07-05T10:10:27;30.60;;;9.15;;
56297;SDS011;42208;6.376;-10.782;2022-07-05T10:12:57;22.67;;;9.20;;
56297;SDS011;42208;6.376;-10.782;2022-07-05T10:15:35;16.30;;;7.65;;
56297;SDS011;42208;6.376;-10.782;2022-07-05T10:18:08;21.75;;;8.57;;
56297;SDS011;42208;6.376;-10.782;2022-07-05T10:23:16;19.15;;;7.95;;
56297;SDS011;42208;6.376;-10.782;2022-07-05T10:25:46;18.77;;;7.28;;
56297;SDS011;42208;6.376;-10.782;2022-07-05T10:28:17;13.93;;;5.55;;
56297;SDS011;42208;6.376;-10.782;2022-07-05T10:30:47;14.38;;;6.05;;
56297;SDS011;42208;6.376;-10.782;2022-07-05T10:33:20;13.35;;;5.60;;
56297;SDS011;42208;6.376;-10.782;2022-07-05T10:35:48;17.77;;;7.60;;
56297;SDS011;42208;6.376;-10.782;2022-07-05T10:38:16;14.85;;;8.43;;
56297;SDS011;42208;6.376;-10.782;2022-07-05T10:40:46;18.40;;;8.18;;
56297;SDS011;42208;6.376;-10.782;2022-07-05T10:45:49;15.73;;;8.27;;
56297;SDS011;42208;6.376;-10.782;2022-07-05T10:48:19;26.35;;;9.18;;
56297;SDS011;42208;6.376;-10.782;2022-07-05T10:50:59;19.25;;;7.88;;
56297;SDS011;42208;6.376;-10.782;2022-07-05T10:58:33;15.38;;;7.43;;
56297;SDS011;42208;6.376;-10.782;2022-07-05T11:03:53;32.67;;;8.18;;
56297;SDS011;42208;6.376;-10.782;2022-07-05T11:11:40;17.48;;;6.70;;
56297;SDS011;42208;6.376;-10.782;2022-07-05T11:14:31;23.88;;;7.72;;
56297;SDS011;42208;6.376;-10.782;2022-07-05T11:20:12;16.40;;;5.85;;
56297;SDS011;42208;6.376;-10.782;2022-07-05T11:23:03;21.20;;;7.03;;
56297;SDS011;42208;6.376;-10.782;2022-07-05T11:25:33;17.23;;;5.22;;
56297;SDS011;42208;6.376;-10.782;2022-07-05T11:28:07;13.88;;;5.90;;
56297;SDS011;42208;6.376;-10.782;2022-07-05T11:30:47;16.95;;;5.40;;
56297;SDS011;42208;6.376;-10.782;2022-07-05T11:33:33;9.10;;;3.83;;
56297;SDS011;42208;6.376;-10.782;2022-07-05T11:36:18;24.35;;;4.55;;
56297;SDS011;42208;6.376;-10.782;2022-07-05T11:41:41;11.13;;;7.45;;
56297;SDS011;42208;6.376;-10.782;2022-07-05T11:44:11;10.85;;;5.28;;
56297;SDS011;42208;6.376;-10.782;2022-07-05T11:46:41;13.93;;;7.32;;
56297;SDS011;42208;6.376;-10.782;2022-07-05T11:49:23;17.00;;;8.48;;
56297;SDS011;42208;6.376;-10.782;2022-07-05T11:52:01;18.05;;;7.82;;
56297;SDS011;42208;6.376;-10.782;2022-07-05T11:54:31;14.55;;;7.28;;
56297;SDS011;42208;6.376;-10.782;2022-07-05T11:57:01;17.65;;;7.60;;
56297;SDS011;42208;6.376;-10.782;2022-07-05T11:59:29;14.80;;;5.55;;
56297;SDS011;42208;6.376;-10.782;2022-07-05T12:01:58;18.90;;;6.88;;
56297;SDS011;42208;6.376;-10.782;2022-07-05T12:04:28;15.63;;;7.13;;
56297;SDS011;42208;6.376;-10.782;2022-07-05T12:06:57;13.00;;;7.28;;
56297;SDS011;42208;6.376;-10.782;2022-07-05T12:09:27;12.13;;;6.18;;
56297;SDS011;42208;6.376;-10.782;2022-07-05T12:11:57;9.73;;;5.68;;
56297;SDS011;42208;6.376;-10.782;2022-07-05T12:14:25;8.05;;;4.70;;
56297;SDS011;42208;6.376;-10.782;2022-07-05T12:19:53;16.27;;;5.68;;
56297;SDS011;42208;6.376;-10.782;2022-07-05T12:22:29;21.52;;;6.18;;
56297;SDS011;42208;6.376;-10.782;2022-07-05T12:24:57;18.85;;;4.95;;
56297;SDS011;42208;6.376;-10.782;2022-07-05T12:27:27;12.63;;;4.72;;
56297;SDS011;42208;6.376;-10.782;2022-07-05T12:29:57;18.83;;;7.05;;
56297;SDS011;42208;6.376;-10.782;2022-07-05T12:32:25;14.27;;;5.63;;
56297;SDS011;42208;6.376;-10.782;2022-07-05T12:34:54;13.00;;;5.40;;
56297;SDS011;42208;6.376;-10.782;2022-07-05T12:37:27;16.70;;;6.20;;
56297;SDS011;42208;6.376;-10.782;2022-07-05T12:40:05;22.95;;;7.13;;
56297;SDS011;42208;6.376;-10.782;2022-07-05T12:42:36;14.00;;;6.68;;
56297;SDS011;42208;6.376;-10.782;2022-07-05T12:45:09;22.73;;;6.43;;
56297;SDS011;42208;6.376;-10.782;2022-07-05T12:50:22;19.30;;;6.15;;
56297;SDS011;42208;6.376;-10.782;2022-07-05T12:55:35;17.52;;;6.53;;
56297;SDS011;42208;6.376;-10.782;2022-07-05T12:58:04;25.48;;;7.35;;
56297;SDS011;42208;6.376;-10.782;2022-07-05T13:00:32;19.15;;;8.20;;
56297;SDS011;42208;6.376;-10.782;2022-07-05T13:03:00;13.52;;;6.32;;
56297;SDS011;42208;6.376;-10.782;2022-07-05T13:05:29;10.35;;;5.78;;
56297;SDS011;42208;6.376;-10.782;2022-07-05T13:07:57;17.88;;;5.53;;
56297;SDS011;42208;6.376;-10.782;2022-07-05T13:10:26;20.35;;;6.30;;
56297;SDS011;42208;6.376;-10.782;2022-07-05T13:12:55;22.98;;;6.63;;
56297;SDS011;42208;6.376;-10.782;2022-07-05T13:15:23;16.83;;;5.78;;
56297;SDS011;42208;6.376;-10.782;2022-07-05T13:17:52;22.85;;;6.25;;
56297;SDS011;42208;6.376;-10.782;2022-07-05T13:20:21;24.65;;;7.70;;
56297;SDS011;42208;6.376;-10.782;2022-07-05T13:22:49;17.25;;;6.18;;
56297;SDS011;42208;6.376;-10.782;2022-07-05T13:25:18;22.58;;;5.90;;
56297;SDS011;42208;6.376;-10.782;2022-07-05T13:27:46;22.65;;;6.13;;
56297;SDS011;42208;6.376;-10.782;2022-07-05T13:30:14;19.83;;;6.05;;
56297;SDS011;42208;6.376;-10.782;2022-07-05T13:32:43;20.60;;;6.28;;
56297;SDS011;42208;6.376;-10.782;2022-07-05T13:35:11;21.88;;;6.65;;
56297;SDS011;42208;6.376;-10.782;2022-07-05T13:37:39;22.45;;;6.00;;
56297;SDS011;42208;6.376;-10.782;2022-07-05T13:40:07;22.40;;;6.15;;
56297;SDS011;42208;6.376;-10.782;2022-07-05T13:42:36;20.10;;;6.72;;
56297;SDS011;42208;6.376;-10.782;2022-07-05T13:45:05;23.00;;;7.03;;
56297;SDS011;42208;6.376;-10.782;2022-07-05T13:47:33;16.35;;;7.97;;
56297;SDS011;42208;6.376;-10.782;2022-07-05T13:50:02;19.98;;;6.80;;
56297;SDS011;42208;6.376;-10.782;2022-07-05T13:52:30;21.65;;;6.53;;
56297;SDS011;42208;6.376;-10.782;2022-07-05T13:54:58;16.00;;;6.28;;
56297;SDS011;42208;6.376;-10.782;2022-07-05T13:57:27;28.75;;;8.20;;
56297;SDS011;42208;6.376;-10.782;2022-07-05T13:59:55;15.43;;;6.38;;
56297;SDS011;42208;6.376;-10.782;2022-07-05T14:02:23;17.63;;;6.78;;
56297;SDS011;42208;6.376;-10.782;2022-07-05T14:04:51;20.67;;;8.23;;
56297;SDS011;42208;6.376;-10.782;2022-07-05T14:07:20;27.65;;;9.30;;
56297;SDS011;42208;6.376;-10.782;2022-07-05T14:09:48;13.57;;;6.30;;
56297;SDS011;42208;6.376;-10.782;2022-07-05T14:12:16;23.08;;;8.73;;
56297;SDS011;42208;6.376;-10.782;2022-07-05T14:14:44;24.75;;;11.52;;
56297;SDS011;42208;6.376;-10.782;2022-07-05T14:17:15;22.90;;;6.60;;
56297;SDS011;42208;6.376;-10.782;2022-07-05T14:19:43;20.80;;;10.40;;
56297;SDS011;42208;6.376;-10.782;2022-07-05T14:22:12;14.77;;;7.03;;
56297;SDS011;42208;6.376;-10.782;2022-07-05T14:24:40;27.52;;;9.80;;
56297;SDS011;42208;6.376;-10.782;2022-07-05T14:27:08;23.25;;;8.27;;
56297;SDS011;42208;6.376;-10.782;2022-07-05T14:29:36;17.15;;;9.43;;
56297;SDS011;42208;6.376;-10.782;2022-07-05T14:32:05;22.83;;;11.25;;
56297;SDS011;42208;6.376;-10.782;2022-07-05T14:34:33;39.40;;;21.02;;
56297;SDS011;42208;6.376;-10.782;2022-07-05T14:37:02;23.08;;;13.57;;
56297;SDS011;42208;6.376;-10.782;2022-07-05T14:39:30;21.50;;;9.43;;
56297;SDS011;42208;6.376;-10.782;2022-07-05T14:41:58;27.45;;;9.40;;
56297;SDS011;42208;6.376;-10.782;2022-07-05T14:44:26;19.85;;;8.02;;
56297;SDS011;42208;6.376;-10.782;2022-07-05T14:46:55;18.48;;;9.02;;
56297;SDS011;42208;6.376;-10.782;2022-07-05T14:49:23;22.30;;;10.27;;
56297;SDS011;42208;6.376;-10.782;2022-07-05T14:51:52;24.95;;;9.65;;
56297;SDS011;42208;6.376;-10.782;2022-07-05T14:54:20;22.52;;;8.98;;
56297;SDS011;42208;6.376;-10.782;2022-07-05T14:56:48;33.92;;;14.85;;
56297;SDS011;42208;6.376;-10.782;2022-07-05T14:59:25;35.13;;;15.00;;
56297;SDS011;42208;6.376;-10.782;2022-07-05T15:01:53;25.05;;;12.32;;
56297;SDS011;42208;6.376;-10.782;2022-07-05T15:04:21;27.20;;;10.18;;
56297;SDS011;42208;6.376;-10.782;2022-07-05T15:06:49;15.13;;;7.18;;
56297;SDS011;42208;6.376;-10.782;2022-07-05T15:09:18;13.35;;;6.78;;
56297;SDS011;42208;6.376;-10.782;2022-07-05T15:11:46;18.60;;;7.28;;
56297;SDS011;42208;6.376;-10.782;2022-07-05T15:14:14;19.95;;;8.63;;
56297;SDS011;42208;6.376;-10.782;2022-07-05T15:16:43;18.67;;;9.57;;
56297;SDS011;42208;6.376;-10.782;2022-07-05T15:19:11;24.27;;;10.73;;
56297;SDS011;42208;6.376;-10.782;2022-07-05T15:21:40;24.10;;;11.73;;
56297;SDS011;42208;6.376;-10.782;2022-07-05T15:24:09;30.95;;;16.48;;
56297;SDS011;42208;6.376;-10.782;2022-07-05T15:26:44;27.70;;;16.42;;
56297;SDS011;42208;6.376;-10.782;2022-07-05T15:29:13;22.75;;;14.20;;